createdAt,value
2022-10-01T00:03:27.683Z,9.47
2022-10-01T00:33:32.835Z,9.39
2022-10-01T01:03:37.063Z,9.63
2022-10-01T01:33:44.568Z,9.84
2022-10-01T02:03:48.586Z,10.08
2022-10-01T02:33:55.147Z,9.62
2022-10-01T03:03:59.060Z,9.01
2022-10-01T03:34:03.112Z,8.54
2022-10-01T04:04:07.570Z,8.31
2022-10-01T04:34:11.609Z,8.26
2022-10-01T05:04:15.762Z,8.25
2022-10-01T05:34:19.994Z,8.22
2022-10-01T06:04:24.182Z,8.51
2022-10-01T06:34:28.339Z,8.84
2022-10-01T07:04:32.491Z,9.15
2022-10-01T07:34:37.472Z,9.44
2022-10-01T08:04:58.991Z,9.82
2022-10-01T08:35:04.783Z,10.49
2022-10-01T09:05:20.151Z,10.60
2022-10-01T09:35:35.080Z,11.17
2022-10-01T10:05:44.962Z,11.45
2022-10-01T10:35:58.546Z,11.44
2022-10-01T11:06:04.746Z,12.88
2022-10-01T11:36:16.525Z,14.80
2022-10-01T12:06:25.281Z,18.39
2022-10-01T12:36:39.749Z,20.72
2022-10-01T13:06:55.065Z,18.41
2022-10-01T13:37:05.789Z,20.56
2022-10-01T14:07:17.326Z,21.34
2022-10-01T14:37:21.701Z,20.91
2022-10-01T15:07:29.075Z,18.45
2022-10-01T15:37:35.150Z,17.64
2022-10-01T16:07:40.273Z,15.35
2022-10-01T16:37:45.342Z,14.57
2022-10-01T17:07:49.593Z,14.10
2022-10-01T17:37:53.690Z,13.79
2022-10-01T18:07:57.784Z,13.64
2022-10-01T18:38:04.647Z,13.38
2022-10-01T19:08:17.862Z,13.15
2022-10-01T19:38:25.142Z,12.84
2022-10-01T20:08:36.259Z,12.44
2022-10-01T20:38:43.684Z,12.29
2022-10-01T21:08:52.354Z,12.21
2022-10-01T21:39:01.119Z,12.16
2022-10-01T22:09:09.083Z,12.07
2022-10-01T22:39:19.006Z,11.98
2022-10-01T23:09:28.824Z,11.98
2022-10-01T23:39:42.390Z,11.84
